| time (UTC) | temp C | wind direction | speed KPH | gust KPH | rain 1hr cm | rain 24hr cm | rain mn cm | humidity % | barometer mb |
| 20260503195543 | 13 | 136 | 1.6 | 8.0 | 0.00 | 0.05 | 0.05 | 76 | 1014.4 |
| 20260503195040 | 13 | 168 | 1.6 | 9.7 | 0.00 | 0.05 | 0.05 | 76 | 1014.3 |
| 20260503194553 | 13 | 162 | 3.2 | 9.7 | 0.00 | 0.05 | 0.05 | 76 | 1014.4 |
| 20260503194042 | 13 | 0 | 1.6 | 11.3 | 0.00 | 0.05 | 0.05 | 76 | 1014.3 |
| 20260503193543 | 13 | 110 | 1.6 | 11.3 | 0.00 | 0.05 | 0.05 | 76 | 1014.2 |
| 20260503193052 | 13 | 168 | 3.2 | 11.3 | 0.00 | 0.05 | 0.05 | 76 | 1014.2 |
| 20260503192542 | 13 | 118 | 1.6 | 8.0 | 0.00 | 0.05 | 0.05 | 77 | 1014.1 |
| 20260503192041 | 13 | 122 | 1.6 | 8.0 | 0.00 | 0.05 | 0.05 | 77 | 1014.1 |
| 20260503191550 | 13 | 127 | 3.2 | 8.0 | 0.00 | 0.05 | 0.05 | 77 | 1014.1 |
| 20260503191044 | 13 | 115 | 1.6 | 4.8 | 0.00 | 0.05 | 0.05 | 78 | 1014.1 |
| 20260503190541 | 13 | 134 | 0.0 | 9.7 | 0.00 | 0.05 | 0.05 | 78 | 1014.0 |
| 20260503190055 | 13 | 167 | 1.6 | 9.7 | 0.00 | 0.05 | 0.05 | 78 | 1014.0 |
| 20260503185543 | 13 | 145 | 1.6 | 9.7 | 0.00 | 0.05 | 0.05 | 78 | 1013.9 |
| 20260503185044 | 13 | 141 | 1.6 | 6.4 | 0.00 | 0.05 | 0.05 | 79 | 1013.9 |
| 20260503184603 | 13 | 0 | 1.6 | 8.0 | 0.00 | 0.05 | 0.05 | 79 | 1013.8 |
| 20260503184039 | 13 | 200 | 1.6 | 8.0 | 0.00 | 0.05 | 0.05 | 79 | 1013.6 |
| 20260503183541 | 13 | 125 | 1.6 | 9.7 | 0.00 | 0.05 | 0.05 | 79 | 1013.8 |
| 20260503183057 | 13 | 169 | 3.2 | 9.7 | 0.00 | 0.05 | 0.05 | 79 | 1013.6 |
| 20260503182540 | 13 | 145 | 3.2 | 6.4 | 0.00 | 0.05 | 0.05 | 79 | 1013.7 |
| 20260503182040 | 13 | 127 | 1.6 | 17.7 | 0.00 | 0.05 | 0.05 | 79 | 1013.7 |
| 20260503181603 | 13 | 136 | 3.2 | 17.7 | 0.00 | 0.05 | 0.05 | 79 | 1013.6 |
| 20260503181043 | 13 | 229 | 3.2 | 9.7 | 0.00 | 0.05 | 0.05 | 79 | 1013.7 |
| 20260503180542 | 13 | 201 | 4.8 | 9.7 | 0.00 | 0.05 | 0.05 | 80 | 1013.6 |
| 20260503180049 | 13 | 150 | 1.6 | 8.0 | 0.00 | 0.05 | 0.05 | 80 | 1013.6 |
| 20260503175545 | 13 | 203 | 1.6 | 4.8 | 0.00 | 0.05 | 0.05 | 80 | 1013.5 |
| 20260503175039 | 13 | 117 | 1.6 | 4.8 | 0.00 | 0.05 | 0.05 | 80 | 1013.5 |
| 20260503174550 | 13 | 193 | 0.0 | 4.8 | 0.00 | 0.05 | 0.05 | 81 | 1013.5 |
| 20260503174042 | 13 | 236 | 1.6 | 4.8 | 0.00 | 0.05 | 0.05 | 81 | 1013.5 |
| 20260503173542 | 13 | 221 | 0.0 | 4.8 | 0.00 | 0.05 | 0.05 | 82 | 1013.4 |
| 20260503173054 | 13 | 119 | 1.6 | 4.8 | 0.03 | 0.05 | 0.05 | 82 | 1013.6 |
| 20260503172544 | 13 | 131 | 0.0 | 4.8 | 0.03 | 0.05 | 0.05 | 83 | 1013.6 |
| 20260503172042 | 13 | 145 | 0.0 | 4.8 | 0.05 | 0.05 | 0.05 | 83 | 1013.7 |
| 20260503171548 | 13 | 221 | 0.0 | 4.8 | 0.05 | 0.05 | 0.05 | 82 | 1013.9 |
| 20260503171042 | 13 | 205 | 0.0 | 3.2 | 0.05 | 0.05 | 0.05 | 82 | 1013.9 |
| 20260503170541 | 13 | 0 | 0.0 | 6.4 | 0.05 | 0.05 | 0.05 | 82 | 1013.9 |
| 20260503150538 | 18 | 231 | 3.2 | 17.7 | 0.00 | 0.00 | 0.00 | 55 | 1013.0 |
| 20260503131044 | 20 | 162 | 1.6 | 12.9 | 0.00 | 0.00 | 0.00 | 50 | 1013.5 |
| 20260503130543 | 20 | 131 | 1.6 | 12.9 | 0.00 | 0.00 | 0.00 | 50 | 1013.6 |
| 20260503110539 | 20 | 159 | 4.8 | 12.9 | 0.00 | 0.00 | 0.00 | 43 | 1013.6 |
| 20260503081617 | 17 | 70 | 8.0 | 19.3 | 0.00 | 0.00 | 0.00 | 47 | 1014.3 |
| 20260503081038 | 17 | 227 | 3.2 | 14.5 | 0.00 | 0.00 | 0.00 | 48 | 1014.4 |
| 20260503080538 | 17 | 252 | 3.2 | 20.9 | 0.00 | 0.00 | 0.00 | 49 | 1014.4 |
| 20260503080108 | 17 | 135 | 6.4 | 24.1 | 0.00 | 0.00 | 0.00 | 49 | 1014.4 |
| 20260503072539 | 17 | 153 | 8.0 | 19.3 | 0.00 | 0.00 | 0.00 | 51 | 1014.4 |
| 20260503072038 | 17 | 212 | 8.0 | 19.3 | 0.00 | 0.00 | 0.00 | 50 | 1014.2 |
| 20260503071551 | 17 | 194 | 6.4 | 16.1 | 0.00 | 0.00 | 0.00 | 51 | 1014.3 |
| 20260503071038 | 17 | 146 | 4.8 | 12.9 | 0.00 | 0.00 | 0.00 | 52 | 1014.3 |
| 20260503070538 | 17 | 108 | 4.8 | 12.9 | 0.00 | 0.00 | 0.00 | 52 | 1014.3 |
| 20260503055041 | 14 | 155 | 1.6 | 12.9 | 0.00 | 0.00 | 0.00 | 57 | 1014.2 |
| 20260503054555 | 14 | 165 | 3.2 | 12.9 | 0.00 | 0.00 | 0.00 | 57 | 1014.1 |
| 20260503054043 | 14 | 86 | 1.6 | 9.7 | 0.00 | 0.00 | 0.00 | 57 | 1014.1 |
| 20260503053542 | 14 | 123 | 1.6 | 9.7 | 0.00 | 0.00 | 0.00 | 56 | 1014.2 |
| 20260503053053 | 15 | 146 | 1.6 | 9.7 | 0.00 | 0.00 | 0.00 | 56 | 1014.2 |
| 20260503052544 | 15 | 124 | 4.8 | 9.7 | 0.00 | 0.00 | 0.00 | 55 | 1014.2 |
| 20260503052043 | 15 | 162 | 4.8 | 12.9 | 0.00 | 0.00 | 0.00 | 56 | 1014.2 |
| 20260503051552 | 15 | 127 | 3.2 | 12.9 | 0.00 | 0.00 | 0.00 | 56 | 1014.1 |
| 20260503051043 | 15 | 124 | 4.8 | 12.9 | 0.00 | 0.00 | 0.00 | 56 | 1013.9 |
| 20260503050542 | 15 | 165 | 3.2 | 12.9 | 0.00 | 0.00 | 0.00 | 56 | 1013.9 |
| 20260503050051 | 15 | 166 | 3.2 | 12.9 | 0.00 | 0.00 | 0.00 | 55 | 1014.0 |
| 20260503045542 | 15 | 150 | 3.2 | 12.9 | 0.00 | 0.00 | 0.00 | 56 | 1014.1 |
| 20260503045043 | 15 | 113 | 6.4 | 16.1 | 0.00 | 0.00 | 0.00 | 56 | 1014.1 |
| 20260503044604 | 15 | 140 | 4.8 | 16.1 | 0.00 | 0.00 | 0.00 | 56 | 1014.1 |
| 20260503044042 | 15 | 101 | 4.8 | 11.3 | 0.00 | 0.00 | 0.00 | 56 | 1014.0 |
| 20260503043542 | 15 | 182 | 3.2 | 9.7 | 0.00 | 0.00 | 0.00 | 56 | 1013.9 |
| 20260503043059 | 15 | 139 | 1.6 | 11.3 | 0.00 | 0.00 | 0.00 | 55 | 1013.9 |
| 20260503042542 | 15 | 150 | 3.2 | 11.3 | 0.00 | 0.00 | 0.00 | 55 | 1013.7 |
| 20260503042044 | 15 | 105 | 4.8 | 11.3 | 0.00 | 0.00 | 0.00 | 55 | 1014.0 |
| 20260503041553 | 15 | 134 | 4.8 | 11.3 | 0.00 | 0.00 | 0.00 | 55 | 1013.9 |
| 20260503041043 | 15 | 114 | 1.6 | 11.3 | 0.00 | 0.00 | 0.00 | 55 | 1014.0 |
| 20260503040542 | 15 | 139 | 3.2 | 9.7 | 0.00 | 0.00 | 0.00 | 54 | 1013.9 |
| 20260503040100 | 15 | 147 | 3.2 | 14.5 | 0.00 | 0.00 | 0.00 | 54 | 1014.1 |
| 20260503035542 | 15 | 165 | 3.2 | 14.5 | 0.00 | 0.00 | 0.00 | 54 | 1014.1 |
| 20260503035042 | 15 | 128 | 3.2 | 11.3 | 0.00 | 0.00 | 0.00 | 54 | 1014.0 |
| 20260503034555 | 15 | 165 | 1.6 | 11.3 | 0.00 | 0.00 | 0.00 | 54 | 1014.0 |
| 20260503034044 | 15 | 132 | 3.2 | 11.3 | 0.00 | 0.00 | 0.00 | 53 | 1014.0 |
| 20260503033545 | 15 | 191 | 1.6 | 9.7 | 0.00 | 0.00 | 0.00 | 53 | 1014.2 |
| 20260503033105 | 15 | 160 | 3.2 | 11.3 | 0.00 | 0.00 | 0.00 | 53 | 1014.2 |
| 20260503032542 | 15 | 0 | 1.6 | 12.9 | 0.00 | 0.00 | 0.00 | 53 | 1014.2 |
| 20260503032046 | 15 | 118 | 4.8 | 12.9 | 0.00 | 0.00 | 0.00 | 52 | 1014.2 |
| 20260503031600 | 15 | 139 | 4.8 | 12.9 | 0.00 | 0.00 | 0.00 | 52 | 1014.2 |
| 20260503031043 | 15 | 154 | 1.6 | 9.7 | 0.00 | 0.00 | 0.00 | 52 | 1014.3 |
| 20260503030545 | 16 | 150 | 3.2 | 11.3 | 0.00 | 0.00 | 0.00 | 52 | 1014.2 |
| 20260503030046 | 16 | 153 | 4.8 | 11.3 | 0.00 | 0.00 | 0.00 | 51 | 1014.3 |
| 20260503025542 | 16 | 127 | 1.6 | 12.9 | 0.00 | 0.00 | 0.00 | 52 | 1014.2 |
| 20260503025040 | 16 | 0 | 1.6 | 12.9 | 0.00 | 0.00 | 0.00 | 51 | 1014.4 |
| 20260503024621 | 16 | 119 | 3.2 | 12.9 | 0.00 | 0.00 | 0.00 | 51 | 1014.2 |
| 20260503024044 | 16 | 141 | 3.2 | 14.5 | 0.00 | 0.00 | 0.00 | 51 | 1014.4 |
| 20260503023547 | 16 | 173 | 6.4 | 14.5 | 0.00 | 0.00 | 0.00 | 51 | 1014.5 |
| 20260503023105 | 16 | 0 | 3.2 | 14.5 | 0.00 | 0.00 | 0.00 | 52 | 1014.5 |
| 20260503022605 | 16 | 165 | 1.6 | 11.3 | 0.00 | 0.00 | 0.00 | 53 | 1014.5 |
| 20260503022046 | 16 | 105 | 1.6 | 11.3 | 0.00 | 0.00 | 0.00 | 53 | 1014.6 |
| 20260503021600 | 16 | 157 | 1.6 | 12.9 | 0.00 | 0.00 | 0.00 | 54 | 1014.6 |
| 20260503021042 | 16 | 169 | 3.2 | 12.9 | 0.00 | 0.00 | 0.00 | 54 | 1014.7 |
| 20260503020543 | 16 | 110 | 3.2 | 9.7 | 0.00 | 0.00 | 0.00 | 54 | 1014.7 |
| 20260503020052 | 16 | 129 | 1.6 | 9.7 | 0.00 | 0.00 | 0.00 | 54 | 1014.6 |
| 20260503015546 | 16 | 115 | 1.6 | 12.9 | 0.00 | 0.00 | 0.00 | 54 | 1014.6 |
| 20260503015041 | 16 | 191 | 1.6 | 12.9 | 0.00 | 0.00 | 0.00 | 53 | 1014.8 |
| 20260503014554 | 16 | 212 | 3.2 | 9.7 | 0.00 | 0.00 | 0.00 | 52 | 1014.9 |
| 20260503014042 | 16 | 133 | 1.6 | 11.3 | 0.00 | 0.00 | 0.00 | 52 | 1014.8 |
| 20260503013544 | 17 | 120 | 3.2 | 11.3 | 0.00 | 0.00 | 0.00 | 52 | 1014.8 |
| 20260503013053 | 16 | 131 | 3.2 | 11.3 | 0.00 | 0.00 | 0.00 | 52 | 1014.8 |
| 20260503012549 | 16 | 158 | 1.6 | 11.3 | 0.00 | 0.00 | 0.00 | 52 | 1014.9 |
| 20260503012043 | 16 | 131 | 1.6 | 9.7 | 0.00 | 0.00 | 0.00 | 53 | 1014.9 |
| 20260503011557 | 16 | 126 | 3.2 | 14.5 | 0.00 | 0.00 | 0.00 | 53 | 1014.9 |
| 20260503011043 | 16 | 176 | 3.2 | 14.5 | 0.00 | 0.00 | 0.00 | 54 | 1014.9 |
| 20260503010539 | 16 | 125 | 1.6 | 11.3 | 0.00 | 0.00 | 0.00 | 54 | 1014.9 |
| 20260503010047 | 16 | 105 | 3.2 | 11.3 | 0.00 | 0.00 | 0.00 | 55 | 1015.0 |
| 20260503005543 | 16 | 125 | 4.8 | 11.3 | 0.00 | 0.00 | 0.00 | 56 | 1014.9 |
| 20260503005043 | 16 | 167 | 1.6 | 9.7 | 0.00 | 0.00 | 0.00 | 56 | 1015.1 |
| 20260503004548 | 16 | 0 | 1.6 | 12.9 | 0.00 | 0.00 | 0.00 | 57 | 1015.1 |
| 20260503004042 | 16 | 169 | 3.2 | 12.9 | 0.00 | 0.00 | 0.00 | 56 | 1015.1 |
| 20260503003544 | 16 | 138 | 1.6 | 14.5 | 0.00 | 0.00 | 0.00 | 56 | 1015.0 |
| 20260503003055 | 16 | 200 | 1.6 | 14.5 | 0.00 | 0.00 | 0.00 | 56 | 1015.3 |
| 20260503002545 | 16 | 126 | 4.8 | 14.5 | 0.00 | 0.00 | 0.00 | 57 | 1015.3 |
| 20260503002042 | 16 | 111 | 3.2 | 14.5 | 0.00 | 0.00 | 0.00 | 58 | 1015.2 |
| 20260503001600 | 16 | 0 | 3.2 | 14.5 | 0.00 | 0.00 | 0.00 | 59 | 1015.3 |
| 20260503001041 | 16 | 187 | 3.2 | 14.5 | 0.00 | 0.00 | 0.00 | 60 | 1015.6 |
| 20260503000542 | 16 | 91 | 1.6 | 9.7 | 0.00 | 0.00 | 0.00 | 61 | 1015.4 |
| 20260503000106 | 16 | 145 | 1.6 | 9.7 | 0.00 | 0.00 | 0.00 | 62 | 1015.4 |
| 20260502235544 | 16 | 135 | 1.6 | 6.4 | 0.00 | 0.00 | 0.00 | 63 | 1015.5 |
| 20260502235043 | 16 | 119 | 1.6 | 6.4 | 0.00 | 0.00 | 0.00 | 63 | 1015.5 |
| 20260502234606 | 16 | 153 | 1.6 | 6.4 | 0.00 | 0.00 | 0.00 | 63 | 1015.6 |
| 20260502234043 | 16 | 131 | 1.6 | 6.4 | 0.00 | 0.00 | 0.00 | 63 | 1015.6 |
| 20260502233545 | 16 | 136 | 0.0 | 6.4 | 0.00 | 0.00 | 0.00 | 63 | 1015.7 |
| 20260502233106 | 16 | 162 | 1.6 | 6.4 | 0.00 | 0.00 | 0.00 | 63 | 1015.7 |
| 20260502232542 | 16 | 139 | 1.6 | 4.8 | 0.00 | 0.00 | 0.00 | 64 | 1015.8 |
| 20260502232041 | 16 | 129 | 0.0 | 4.8 | 0.00 | 0.00 | 0.00 | 65 | 1015.8 |
| 20260502231559 | 15 | 0 | 0.0 | 1.6 | 0.00 | 0.00 | 0.00 | 67 | 1015.9 |
| 20260502231046 | 15 | 0 | 0.0 | 1.6 | 0.00 | 0.00 | 0.00 | 67 | 1015.9 |
| 20260502230543 | 15 | 165 | 0.0 | 1.6 | 0.00 | 0.00 | 0.00 | 68 | 1015.9 |
| 20260502230044 | 15 | 0 | 0.0 | 1.6 | 0.00 | 0.00 | 0.00 | 68 | 1015.9 |
| 20260502225546 | 16 | 0 | 0.0 | 1.6 | 0.00 | 0.00 | 0.00 | 67 | 1015.9 |
| 20260502225042 | 16 | 0 | 0.0 | 1.6 | 0.00 | 0.00 | 0.00 | 67 | 1015.9 |
| 20260502224552 | 16 | 0 | 0.0 | 1.6 | 0.00 | 0.00 | 0.00 | 67 | 1016.0 |
| 20260502224044 | 16 | 0 | 0.0 | 1.6 | 0.00 | 0.00 | 0.00 | 67 | 1015.9 |
| 20260502223540 | 16 | 0 | 0.0 | 1.6 | 0.00 | 0.00 | 0.00 | 67 | 1016.0 |
| 20260502223051 | 15 | 0 | 0.0 | 1.6 | 0.00 | 0.00 | 0.00 | 68 | 1015.9 |
| 20260502222542 | 15 | 0 | 0.0 | 1.6 | 0.00 | 0.00 | 0.00 | 69 | 1016.0 |
| 20260502222042 | 15 | 0 | 0.0 | 0.0 | 0.00 | 0.00 | 0.00 | 70 | 1016.0 |
| 20260502221601 | 15 | 0 | 0.0 | 0.0 | 0.00 | 0.00 | 0.00 | 71 | 1016.1 |
| 20260502221039 | 15 | 0 | 0.0 | 0.0 | 0.00 | 0.00 | 0.00 | 72 | 1016.0 |
| 20260502220543 | 15 | 0 | 0.0 | 1.6 | 0.00 | 0.00 | 0.00 | 72 | 1016.1 |
| 20260502220053 | 15 | 0 | 0.0 | 1.6 | 0.00 | 0.00 | 0.00 | 73 | 1016.1 |
| 20260502215542 | 15 | 0 | 0.0 | 0.0 | 0.00 | 0.00 | 0.00 | 73 | 1016.0 |
| 20260502215044 | 15 | 0 | 0.0 | 0.0 | 0.00 | 0.00 | 0.00 | 72 | 1016.1 |
| 20260502214554 | 15 | 0 | 0.0 | 1.6 | 0.00 | 0.00 | 0.00 | 72 | 1016.2 |
| 20260502214044 | 15 | 0 | 0.0 | 1.6 | 0.00 | 0.00 | 0.00 | 72 | 1016.2 |
| 20260502213542 | 15 | 0 | 0.0 | 0.0 | 0.00 | 0.00 | 0.00 | 72 | 1016.2 |
| 20260502213053 | 15 | 0 | 0.0 | 0.0 | 0.00 | 0.00 | 0.00 | 71 | 1016.3 |
| 20260502212544 | 15 | 0 | 0.0 | 0.0 | 0.00 | 0.00 | 0.00 | 70 | 1016.3 |
| 20260502212043 | 16 | 0 | 0.0 | 0.0 | 0.00 | 0.00 | 0.00 | 70 | 1016.3 |
| 20260502211557 | 16 | 0 | 0.0 | 0.0 | 0.00 | 0.00 | 0.00 | 70 | 1016.4 |
| 20260502211042 | 16 | 0 | 0.0 | 0.0 | 0.00 | 0.00 | 0.00 | 70 | 1016.4 |
| 20260502210540 | 16 | 0 | 0.0 | 0.0 | 0.00 | 0.00 | 0.00 | 70 | 1016.5 |
| 20260502210047 | 16 | 0 | 0.0 | 0.0 | 0.00 | 0.00 | 0.00 | 69 | 1016.6 |
| 20260502205539 | 16 | 0 | 0.0 | 0.0 | 0.00 | 0.00 | 0.00 | 69 | 1016.6 |
| 20260502205043 | 16 | 0 | 0.0 | 0.0 | 0.00 | 0.00 | 0.00 | 68 | 1016.7 |
| 20260502204553 | 17 | 0 | 0.0 | 1.6 | 0.00 | 0.00 | 0.00 | 68 | 1016.7 |
| 20260502204044 | 17 | 0 | 0.0 | 4.8 | 0.00 | 0.00 | 0.00 | 68 | 1016.6 |
| 20260502203543 | 17 | 0 | 0.0 | 8.0 | 0.00 | 0.00 | 0.00 | 68 | 1016.7 |
| 20260502203101 | 18 | 202 | 0.0 | 8.0 | 0.00 | 0.00 | 0.00 | 64 | 1016.7 |
| 20260502202543 | 17 | 91 | 0.0 | 4.8 | 0.00 | 0.00 | 0.00 | 64 | 1016.4 |
| 20260502202043 | 17 | 0 | 0.0 | 16.1 | 0.00 | 0.00 | 0.00 | 68 | 1016.6 |
| 20260502201554 | 18 | 24 | 1.6 | 16.1 | 0.00 | 0.00 | 0.00 | 67 | 1016.8 |
| 20260502201043 | 19 | 49 | 1.6 | 16.1 | 0.00 | 0.00 | 0.00 | 60 | 1016.7 |
| 20260502200545 | 19 | 129 | 4.8 | 16.1 | 0.00 | 0.00 | 0.00 | 55 | 1016.3 |
| 20260502200052 | 19 | 141 | 6.4 | 16.1 | 0.00 | 0.00 | 0.00 | 55 | 1016.3 |